createdAt,value
2023-04-22T00:00:42.523Z,9.80
2023-04-22T00:03:10.109Z,9.78
2023-04-22T00:05:38.045Z,9.76
2023-04-22T00:08:06.174Z,9.73
2023-04-22T00:10:34.244Z,9.72
2023-04-22T00:13:01.802Z,9.70
2023-04-22T00:15:29.372Z,9.69
2023-04-22T00:17:57.477Z,9.70
2023-04-22T00:20:25.205Z,9.72
2023-04-22T00:22:52.432Z,9.72
2023-04-22T00:25:19.928Z,9.69
2023-04-22T00:27:47.088Z,9.66
2023-04-22T00:30:14.713Z,9.65
2023-04-22T00:32:43.351Z,9.65
2023-04-22T00:35:10.719Z,9.64
2023-04-22T00:37:38.142Z,9.59
2023-04-22T00:40:06.414Z,9.51
2023-04-22T00:42:33.738Z,9.46
2023-04-22T00:45:01.398Z,9.41
2023-04-22T00:47:29.687Z,9.37
2023-04-22T00:49:57.132Z,9.33
2023-04-22T00:52:24.686Z,9.29
2023-04-22T00:54:52.357Z,9.27
2023-04-22T00:57:20.109Z,9.30
2023-04-22T00:59:47.201Z,9.31
2023-04-22T01:02:15.252Z,9.32
2023-04-22T01:04:42.479Z,9.36
2023-04-22T01:07:09.942Z,9.34
2023-04-22T01:09:38.366Z,9.31
2023-04-22T01:12:05.778Z,9.31
2023-04-22T01:14:33.886Z,9.31
2023-04-22T01:17:02.596Z,9.31
2023-04-22T01:19:30.103Z,9.32
2023-04-22T01:21:57.230Z,9.31
2023-04-22T01:24:25.107Z,9.27
2023-04-22T01:26:52.666Z,9.26
2023-04-22T01:29:20.325Z,9.28
2023-04-22T01:31:47.608Z,9.30
2023-04-22T01:34:15.546Z,9.30
2023-04-22T01:36:43.531Z,9.31
2023-04-22T01:39:10.696Z,9.30
2023-04-22T01:41:37.764Z,9.28
2023-04-22T01:44:05.010Z,9.25
2023-04-22T01:46:32.788Z,9.24
2023-04-22T01:49:00.284Z,9.24
2023-04-22T01:51:27.437Z,9.26
2023-04-22T01:53:56.225Z,9.26
2023-04-22T01:56:25.024Z,9.25
2023-04-22T01:58:52.467Z,9.25
2023-04-22T02:01:20.273Z,9.24
2023-04-22T02:03:47.950Z,9.26
2023-04-22T02:06:15.692Z,9.28
2023-04-22T02:08:42.714Z,9.28
2023-04-22T02:11:10.383Z,9.28
2023-04-22T02:13:37.920Z,9.29
2023-04-22T02:16:05.865Z,9.29
2023-04-22T02:18:33.981Z,9.27
2023-04-22T02:21:02.053Z,9.28
2023-04-22T02:23:29.188Z,9.30
2023-04-22T02:25:56.753Z,9.29
2023-04-22T02:28:24.212Z,9.26
2023-04-22T02:30:51.873Z,9.22
2023-04-22T02:33:20.133Z,9.20
2023-04-22T02:35:47.729Z,9.18
2023-04-22T02:38:18.766Z,9.17
2023-04-22T02:40:46.705Z,9.16
2023-04-22T02:43:14.466Z,9.15
2023-04-22T02:45:41.920Z,9.16
2023-04-22T02:48:09.781Z,9.15
2023-04-22T02:50:37.557Z,9.13
2023-04-22T02:53:05.072Z,9.10
2023-04-22T02:55:32.611Z,9.09
2023-04-22T02:58:00.080Z,9.10
2023-04-22T03:00:27.396Z,9.12
2023-04-22T03:02:54.810Z,9.12
2023-04-22T03:05:26.906Z,9.15
2023-04-22T03:07:54.459Z,9.19
2023-04-22T03:10:22.125Z,9.20
2023-04-22T03:12:51.116Z,9.21
2023-04-22T03:15:21.272Z,9.22
2023-04-22T03:17:49.185Z,9.24
2023-04-22T03:20:16.631Z,9.23
2023-04-22T03:22:44.077Z,9.19
2023-04-22T03:25:11.939Z,9.15
2023-04-22T03:27:40.375Z,9.11
2023-04-22T03:30:08.022Z,9.11
2023-04-22T03:32:53.769Z,9.14
2023-04-22T03:35:28.638Z,9.15
2023-04-22T03:37:58.060Z,9.13
2023-04-22T03:40:29.462Z,9.15
2023-04-22T03:42:56.757Z,9.15
2023-04-22T03:45:24.308Z,9.12
2023-04-22T03:48:14.913Z,9.11
2023-04-22T03:50:46.541Z,9.11
2023-04-22T03:53:14.001Z,9.13
2023-04-22T03:55:41.411Z,9.15
2023-04-22T03:58:08.938Z,9.17
2023-04-22T04:00:36.286Z,9.20
2023-04-22T04:03:08.283Z,9.20
2023-04-22T04:05:36.546Z,9.18
2023-04-22T04:08:04.071Z,9.18
2023-04-22T04:10:31.675Z,9.19
2023-04-22T04:13:00.168Z,9.23
2023-04-22T04:15:28.799Z,9.23
2023-04-22T04:17:56.313Z,9.21
2023-04-22T04:20:24.431Z,9.19
2023-04-22T04:22:52.089Z,9.21
2023-04-22T04:25:20.788Z,9.26
2023-04-22T04:27:48.236Z,9.32
2023-04-22T04:30:16.207Z,9.39
2023-04-22T04:32:49.317Z,9.44
2023-04-22T04:35:18.094Z,9.48
2023-04-22T04:37:50.339Z,9.48
2023-04-22T04:40:18.571Z,9.47
2023-04-22T04:43:03.809Z,9.51
2023-04-22T04:45:38.754Z,9.55
2023-04-22T04:48:07.702Z,9.55
2023-04-22T04:51:00.368Z,9.53
2023-04-22T04:53:29.309Z,9.53
2023-04-22T04:55:56.638Z,9.52
2023-04-22T04:58:26.285Z,9.49
2023-04-22T05:01:06.549Z,9.54
2023-04-22T05:03:34.333Z,9.58
2023-04-22T05:06:04.042Z,9.62
2023-04-22T05:08:36.883Z,9.64
2023-04-22T05:11:08.552Z,9.64
2023-04-22T05:13:37.233Z,9.61
2023-04-22T05:16:10.942Z,9.61
2023-04-22T05:18:51.310Z,9.62
2023-04-22T05:21:20.649Z,9.64
2023-04-22T05:23:49.680Z,9.64
2023-04-22T05:26:17.416Z,9.66
2023-04-22T05:28:46.591Z,9.68
2023-04-22T05:31:14.253Z,9.70
2023-04-22T05:33:41.708Z,9.72
2023-04-22T05:36:10.296Z,9.73
2023-04-22T05:38:37.901Z,9.74
2023-04-22T05:41:05.824Z,9.77
2023-04-22T05:43:37.030Z,9.83
2023-04-22T05:46:09.926Z,9.88
2023-04-22T05:48:38.667Z,9.93
2023-04-22T05:51:09.427Z,10.00
2023-04-22T05:53:36.688Z,10.07
2023-04-22T05:56:04.092Z,10.14
2023-04-22T05:58:34.341Z,10.19
2023-04-22T06:01:15.628Z,10.23
2023-04-22T06:03:54.688Z,10.27
2023-04-22T06:06:23.056Z,10.36
2023-04-22T06:08:50.493Z,10.43
2023-04-22T06:11:17.866Z,10.47
2023-04-22T06:13:45.490Z,10.51
2023-04-22T06:16:13.442Z,10.58
2023-04-22T06:18:43.182Z,10.63
2023-04-22T06:21:11.831Z,10.62
2023-04-22T06:23:40.312Z,10.59
2023-04-22T06:26:07.756Z,10.61
2023-04-22T06:28:39.277Z,10.69
2023-04-22T06:31:11.052Z,10.81
2023-04-22T06:33:38.763Z,10.92
2023-04-22T06:36:06.137Z,11.00
2023-04-22T06:38:34.884Z,11.05
2023-04-22T06:41:22.473Z,11.16
2023-04-22T06:43:51.298Z,11.31
2023-04-22T06:46:18.485Z,11.49
2023-04-22T06:48:51.361Z,11.64
2023-04-22T06:51:50.452Z,11.76
2023-04-22T06:54:17.576Z,11.81
2023-04-22T06:56:44.846Z,11.84
2023-04-22T06:59:12.557Z,11.85
2023-04-22T07:01:39.852Z,11.83
2023-04-22T07:04:07.705Z,11.79
2023-04-22T07:06:35.428Z,11.81
2023-04-22T07:09:05.541Z,11.82
2023-04-22T07:11:33.666Z,11.86
2023-04-22T07:14:05.419Z,12.00
2023-04-22T07:16:35.964Z,12.15
2023-04-22T07:19:04.274Z,12.28
2023-04-22T07:21:32.290Z,12.39
2023-04-22T07:24:01.517Z,12.44
2023-04-22T07:26:31.420Z,12.43
2023-04-22T07:28:58.617Z,12.42
2023-04-22T07:31:47.047Z,12.43
2023-04-22T07:34:15.289Z,12.46
2023-04-22T07:36:43.704Z,12.51
2023-04-22T08:07:53.405Z,12.18
2023-04-22T08:10:20.729Z,12.08
2023-04-22T08:12:47.789Z,12.01
2023-04-22T08:15:15.033Z,11.97
2023-04-22T08:17:42.928Z,12.01
2023-04-22T08:20:10.573Z,12.07
2023-04-22T08:22:38.345Z,12.12
2023-04-22T08:25:06.398Z,12.23
2023-04-22T08:27:33.548Z,12.34
2023-04-22T08:30:00.562Z,12.41
2023-04-22T08:32:28.025Z,12.45
2023-04-22T08:35:04.023Z,12.44
2023-04-22T08:37:32.579Z,12.41
2023-04-22T08:40:00.179Z,12.38
2023-04-22T08:42:28.624Z,12.37
2023-04-22T08:44:56.690Z,12.40
2023-04-22T08:47:44.398Z,12.47
2023-04-22T08:50:15.741Z,12.63
2023-04-22T08:52:43.255Z,12.85
2023-04-22T08:55:10.406Z,13.02
2023-04-22T08:57:39.476Z,13.08
2023-04-22T09:00:08.441Z,13.09
2023-04-22T09:02:37.836Z,13.01
2023-04-22T09:05:07.251Z,12.90
2023-04-22T09:07:35.865Z,12.81
2023-04-22T09:10:03.250Z,12.77
2023-04-22T09:12:30.786Z,12.77
2023-04-22T09:14:58.388Z,12.80
2023-04-22T09:17:32.604Z,12.85
2023-04-22T09:20:00.332Z,12.92
2023-04-22T09:22:28.057Z,13.00
2023-04-22T09:24:56.391Z,13.08
2023-04-22T09:27:33.958Z,13.16
2023-04-22T09:30:01.289Z,13.22
2023-04-22T09:32:30.205Z,13.26
2023-04-22T09:34:57.883Z,13.30
2023-04-22T09:37:26.432Z,13.32
2023-04-22T09:39:58.227Z,13.29
2023-04-22T09:42:25.454Z,13.20
2023-04-22T09:44:54.176Z,13.12
2023-04-22T09:47:23.101Z,13.09
2023-04-22T09:49:53.120Z,13.11
2023-04-22T09:52:29.178Z,13.18
2023-04-22T09:54:58.654Z,13.29
2023-04-22T09:57:27.206Z,13.38
2023-04-22T10:00:07.379Z,13.47
2023-04-22T10:02:38.224Z,13.65
2023-04-22T10:05:06.765Z,13.87
2023-04-22T10:07:34.171Z,14.09
2023-04-22T10:10:02.021Z,14.23
2023-04-22T10:12:35.823Z,14.29
2023-04-22T10:15:27.082Z,14.24
2023-04-22T10:17:58.450Z,14.18
2023-04-22T10:20:26.941Z,14.15
2023-04-22T10:23:14.406Z,14.17
2023-04-22T10:25:41.684Z,14.31
2023-04-22T10:28:10.192Z,14.51
2023-04-22T10:30:38.591Z,14.75
2023-04-22T10:33:33.509Z,15.14
2023-04-22T10:36:19.382Z,15.64
2023-04-22T10:38:50.632Z,16.06
2023-04-22T10:41:22.096Z,16.39
2023-04-22T10:43:55.075Z,16.65
2023-04-22T10:46:36.587Z,16.84
2023-04-22T10:49:07.372Z,16.97
2023-04-22T10:51:43.545Z,16.96
2023-04-22T10:54:36.267Z,16.88
2023-04-22T10:57:04.141Z,16.77
2023-04-22T10:59:32.729Z,16.65
2023-04-22T11:02:03.627Z,16.59
2023-04-22T11:04:30.849Z,16.51
2023-04-22T11:07:35.347Z,16.41
2023-04-22T11:10:06.491Z,16.31
2023-04-22T11:12:41.204Z,16.27
2023-04-22T11:15:08.905Z,16.22
2023-04-22T11:17:36.039Z,16.09
2023-04-22T11:20:04.307Z,15.95
2023-04-22T11:22:40.580Z,15.79
2023-04-22T11:25:09.878Z,15.66
2023-04-22T11:27:39.255Z,15.61
2023-04-22T11:30:12.060Z,15.84
2023-04-22T11:32:47.055Z,16.36
2023-04-22T11:35:15.353Z,16.82
2023-04-22T11:38:10.893Z,16.99
2023-04-22T11:40:42.038Z,17.06
2023-04-22T11:43:12.069Z,17.24
2023-04-22T11:45:40.924Z,17.77
2023-04-22T11:48:08.389Z,18.43
2023-04-22T11:50:47.539Z,18.95
2023-04-22T11:53:19.899Z,19.29
2023-04-22T11:55:47.566Z,19.39
2023-04-22T11:58:16.062Z,19.47
2023-04-22T12:00:44.511Z,19.47
2023-04-22T12:03:15.885Z,19.38
2023-04-22T12:05:44.532Z,19.17
2023-04-22T12:08:13.065Z,19.01
2023-04-22T12:10:47.351Z,18.83
2023-04-22T12:13:29.336Z,18.47
2023-04-22T12:16:01.460Z,18.20
2023-04-22T12:18:35.958Z,17.99
2023-04-22T12:21:06.579Z,17.72
2023-04-22T12:23:52.570Z,17.48
2023-04-22T12:26:22.698Z,17.24
2023-04-22T12:28:52.036Z,17.09
2023-04-22T12:31:20.750Z,17.01
2023-04-22T12:33:48.052Z,16.96
2023-04-22T12:36:15.775Z,16.95
2023-04-22T12:38:43.036Z,16.99
2023-04-22T12:41:10.148Z,17.17
2023-04-22T12:44:00.259Z,17.39
2023-04-22T12:46:29.251Z,17.51
2023-04-22T12:48:56.730Z,17.33
2023-04-22T12:51:24.816Z,17.29
2023-04-22T12:53:52.095Z,17.35
2023-04-22T12:56:20.870Z,17.38
2023-04-22T12:58:49.169Z,17.24
2023-04-22T13:01:16.470Z,17.03
2023-04-22T13:03:53.804Z,16.92
2023-04-22T13:06:22.848Z,16.89
2023-04-22T13:08:50.002Z,16.99
2023-04-22T13:11:25.058Z,17.11
2023-04-22T13:13:52.346Z,17.26
2023-04-22T13:16:21.819Z,17.40
2023-04-22T13:18:49.329Z,17.51
2023-04-22T13:21:18.224Z,17.64
2023-04-22T13:23:45.413Z,17.74
2023-04-22T13:26:15.262Z,17.80
2023-04-22T13:28:42.573Z,17.70
2023-04-22T13:31:10.883Z,17.42
2023-04-22T13:33:38.758Z,17.13
2023-04-22T13:36:09.332Z,16.66
2023-04-22T13:38:43.256Z,15.97
2023-04-22T13:41:10.586Z,15.22
2023-04-22T13:43:38.181Z,14.55
2023-04-22T13:46:06.961Z,14.02
2023-04-22T13:48:34.170Z,13.62
2023-04-22T13:51:02.675Z,13.34
2023-04-22T13:53:32.382Z,13.09
2023-04-22T13:56:03.786Z,12.82
2023-04-22T13:58:51.072Z,12.52
2023-04-22T14:01:39.308Z,12.40
2023-04-22T14:04:15.076Z,12.30
2023-04-22T14:06:42.910Z,12.16
2023-04-22T14:09:11.368Z,12.02
2023-04-22T14:11:39.514Z,11.91
2023-04-22T14:14:15.680Z,11.89
2023-04-22T14:16:44.931Z,11.90
2023-04-22T14:19:19.350Z,11.95
2023-04-22T14:21:48.279Z,12.07
2023-04-22T14:24:15.684Z,12.19
2023-04-22T14:26:43.708Z,12.28
2023-04-22T14:29:11.144Z,12.35
2023-04-22T14:31:40.372Z,12.32
2023-04-22T14:34:07.870Z,12.21
2023-04-22T14:36:35.395Z,12.14
2023-04-22T14:39:41.683Z,12.08
2023-04-22T14:42:10.776Z,11.94
2023-04-22T14:44:39.011Z,11.84
2023-04-22T14:47:06.257Z,11.74
2023-04-22T14:49:36.197Z,11.65
2023-04-22T14:52:03.695Z,11.55
2023-04-22T14:54:31.352Z,11.50
2023-04-22T14:56:59.061Z,11.44
2023-04-22T14:59:26.403Z,11.40
2023-04-22T15:01:56.091Z,11.45
2023-04-22T15:04:23.686Z,11.57
2023-04-22T15:06:57.016Z,11.69
2023-04-22T15:09:25.521Z,11.81
2023-04-22T15:11:54.271Z,11.90
2023-04-22T15:14:42.989Z,11.93
2023-04-22T15:17:12.867Z,11.91
2023-04-22T15:19:40.851Z,11.90
2023-04-22T15:22:08.441Z,11.94
2023-04-22T15:24:36.181Z,11.99
2023-04-22T15:27:03.659Z,12.06
2023-04-22T15:29:34.187Z,12.08
2023-04-22T15:32:02.120Z,12.10
2023-04-22T15:34:51.251Z,12.11
2023-04-22T15:37:20.464Z,12.11
2023-04-22T15:39:48.072Z,12.12
2023-04-22T15:42:15.675Z,12.13
2023-04-22T15:44:43.159Z,12.17
2023-04-22T15:47:10.701Z,12.17
2023-04-22T15:49:45.416Z,12.13
2023-04-22T15:52:12.684Z,12.09
2023-04-22T15:54:43.052Z,11.98
2023-04-22T15:57:26.139Z,11.83
2023-04-22T16:00:06.688Z,11.73
2023-04-22T16:02:43.854Z,11.63
2023-04-22T16:05:12.747Z,11.58
2023-04-22T16:07:41.415Z,11.57
2023-04-22T16:10:09.188Z,11.56
2023-04-22T16:12:37.348Z,11.55
2023-04-22T16:15:06.344Z,11.52
2023-04-22T16:17:34.277Z,11.46
2023-04-22T16:20:06.547Z,11.42
2023-04-22T16:22:55.948Z,11.42
2023-04-22T16:25:25.298Z,11.44
2023-04-22T16:27:53.746Z,11.47
2023-04-22T16:30:22.459Z,11.47
2023-04-22T16:32:51.229Z,11.47
2023-04-22T16:35:19.368Z,11.45
2023-04-22T16:37:47.222Z,11.41
2023-04-22T16:40:14.467Z,11.35
2023-04-22T16:42:41.859Z,11.35
2023-04-22T16:45:09.304Z,11.36
2023-04-22T16:47:37.758Z,11.35
2023-04-22T16:50:25.024Z,11.33
2023-04-22T16:52:52.343Z,11.29
2023-04-22T16:55:20.059Z,11.25
2023-04-22T16:57:50.406Z,11.19
2023-04-22T17:00:19.281Z,11.15
2023-04-22T17:02:48.806Z,11.14
2023-04-22T17:05:16.670Z,11.13
2023-04-22T17:07:44.451Z,11.10
2023-04-22T17:10:11.562Z,11.05
2023-04-22T17:12:39.281Z,10.99
2023-04-22T17:15:07.071Z,10.95
2023-04-22T17:17:34.327Z,10.89
2023-04-22T17:20:02.448Z,10.84
2023-04-22T17:22:30.230Z,10.81
2023-04-22T17:24:58.505Z,10.78
2023-04-22T17:27:26.113Z,10.76
2023-04-22T17:29:53.830Z,10.71
2023-04-22T17:32:23.045Z,10.66
2023-04-22T17:34:50.704Z,10.63
2023-04-22T17:37:18.319Z,10.57
2023-04-22T17:39:47.536Z,10.50
2023-04-22T17:42:14.752Z,10.48
2023-04-22T17:44:42.313Z,10.49
2023-04-22T17:47:10.248Z,10.51
2023-04-22T17:49:38.093Z,10.49
2023-04-22T17:52:05.465Z,10.48
2023-04-22T17:54:32.902Z,10.48
2023-04-22T17:57:01.624Z,10.51
2023-04-22T17:59:29.043Z,10.49
2023-04-22T18:01:56.755Z,10.43
2023-04-22T18:04:24.218Z,10.39
2023-04-22T18:06:51.414Z,10.41
2023-04-22T18:09:18.770Z,10.43
2023-04-22T18:11:46.224Z,10.48
2023-04-22T18:14:13.374Z,10.54
2023-04-22T18:16:40.949Z,10.59
2023-04-22T18:19:08.487Z,10.64
2023-04-22T18:21:39.660Z,10.67
2023-04-22T18:24:08.932Z,10.70
2023-04-22T18:26:36.421Z,10.72
2023-04-22T18:29:05.237Z,10.74
2023-04-22T18:31:32.848Z,10.76
2023-04-22T18:34:00.477Z,10.78
2023-04-22T18:36:29.455Z,10.80
2023-04-22T18:38:58.853Z,10.81
2023-04-22T18:41:29.728Z,10.79
2023-04-22T18:43:57.403Z,10.75
2023-04-22T18:46:24.939Z,10.73
2023-04-22T18:48:52.521Z,10.70
2023-04-22T18:51:20.595Z,10.66
2023-04-22T18:53:48.679Z,10.63
2023-04-22T18:56:16.044Z,10.60
2023-04-22T18:58:43.468Z,10.60
2023-04-22T19:01:11.053Z,10.63
2023-04-22T19:03:42.138Z,10.64
2023-04-22T19:06:09.620Z,10.62
2023-04-22T19:08:37.428Z,10.64
2023-04-22T19:11:07.706Z,10.64
2023-04-22T19:13:35.778Z,10.51
2023-04-22T19:16:03.710Z,10.41
2023-04-22T19:18:31.990Z,10.35
2023-04-22T19:20:59.484Z,10.31
2023-04-22T19:23:27.085Z,10.28
2023-04-22T19:25:55.002Z,10.26
2023-04-22T19:28:22.574Z,10.28
2023-04-22T19:30:51.311Z,10.30
2023-04-22T19:33:18.704Z,10.33
2023-04-22T19:35:46.367Z,10.34
2023-04-22T19:38:18.489Z,10.36
2023-04-22T19:40:46.179Z,10.36
2023-04-22T19:43:13.667Z,10.38
2023-04-22T19:45:40.918Z,10.40
2023-04-22T19:48:08.937Z,10.42
2023-04-22T19:50:37.361Z,10.44
2023-04-22T19:53:05.755Z,10.46
2023-04-22T19:55:35.822Z,10.47
2023-04-22T19:58:03.528Z,10.48
2023-04-22T20:00:31.832Z,10.49
2023-04-22T20:02:59.526Z,10.50
2023-04-22T20:05:27.329Z,10.50
2023-04-22T20:07:57.544Z,10.51
2023-04-22T20:10:26.117Z,10.52
2023-04-22T20:12:53.581Z,10.51
2023-04-22T20:15:21.169Z,10.50
2023-04-22T20:17:48.847Z,10.49
2023-04-22T20:20:27.611Z,10.47
2023-04-22T20:22:54.974Z,10.44
2023-04-22T20:25:22.654Z,10.41
2023-04-22T20:27:50.229Z,10.39
2023-04-22T20:30:18.781Z,10.40
2023-04-22T20:32:46.585Z,10.42
2023-04-22T20:35:16.252Z,10.45
2023-04-22T20:37:45.661Z,10.46
2023-04-22T20:40:14.610Z,10.45
2023-04-22T20:42:42.011Z,10.42
2023-04-22T20:45:14.786Z,10.40
2023-04-22T20:47:42.912Z,10.40
2023-04-22T20:50:10.858Z,10.41
2023-04-22T20:52:38.734Z,10.42
2023-04-22T20:55:06.429Z,10.45
2023-04-22T20:57:33.920Z,10.46
2023-04-22T21:00:01.202Z,10.48
2023-04-22T21:02:29.177Z,10.49
2023-04-22T21:04:58.650Z,10.51
2023-04-22T21:07:30.095Z,10.51
2023-04-22T21:09:57.756Z,10.52
2023-04-22T21:12:25.512Z,10.55
2023-04-22T21:14:53.481Z,10.56
2023-04-22T21:17:22.628Z,10.57
2023-04-22T21:19:50.134Z,10.57
2023-04-22T21:22:21.893Z,10.58
2023-04-22T21:24:49.453Z,10.58
2023-04-22T21:27:17.251Z,10.61
2023-04-22T21:29:46.010Z,10.65
2023-04-22T21:32:13.327Z,10.69
2023-04-22T21:34:41.190Z,10.71
2023-04-22T21:37:09.497Z,10.71
2023-04-22T21:39:37.055Z,10.72
2023-04-22T21:42:07.196Z,10.72
2023-04-22T21:44:35.794Z,10.72
2023-04-22T21:47:03.208Z,10.73
2023-04-22T21:49:30.770Z,10.74
2023-04-22T21:51:58.535Z,10.75
2023-04-22T21:54:25.781Z,10.76
2023-04-22T21:56:54.366Z,10.77
2023-04-22T21:59:24.384Z,10.80
2023-04-22T22:01:52.191Z,10.82
2023-04-22T22:04:20.185Z,10.84
2023-04-22T22:06:48.540Z,10.86
2023-04-22T22:09:15.649Z,10.87
2023-04-22T22:11:42.797Z,10.87
2023-04-22T22:14:10.152Z,10.88
2023-04-22T22:16:37.945Z,10.89
2023-04-22T22:19:06.084Z,10.89
2023-04-22T22:21:33.451Z,10.90
2023-04-22T22:24:00.935Z,10.90
2023-04-22T22:26:28.864Z,10.90
2023-04-22T22:28:56.536Z,10.88
2023-04-22T22:31:24.246Z,10.87
2023-04-22T22:33:52.301Z,10.86
2023-04-22T22:36:19.920Z,10.87
2023-04-22T22:38:47.237Z,10.86
2023-04-22T22:41:14.838Z,10.85
2023-04-22T22:43:42.265Z,10.84
2023-04-22T22:46:09.294Z,10.86
2023-04-22T22:48:37.718Z,10.87
2023-04-22T22:51:05.477Z,10.87
2023-04-22T22:53:35.944Z,10.88
2023-04-22T22:56:03.464Z,10.91
2023-04-22T22:58:33.296Z,10.95
2023-04-22T23:01:00.589Z,10.97
2023-04-22T23:03:28.354Z,11.00
2023-04-22T23:05:56.061Z,11.03
2023-04-22T23:08:23.823Z,11.05
2023-04-22T23:10:51.025Z,11.06
2023-04-22T23:13:20.553Z,11.09
2023-04-22T23:15:47.831Z,11.12
2023-04-22T23:18:17.038Z,11.15
2023-04-22T23:20:44.445Z,11.17
2023-04-22T23:23:12.048Z,11.21
2023-04-22T23:25:39.809Z,11.22
2023-04-22T23:28:07.520Z,11.25
2023-04-22T23:30:35.181Z,11.28
2023-04-22T23:33:03.168Z,11.31
2023-04-22T23:35:32.623Z,11.33
2023-04-22T23:38:00.364Z,11.36
2023-04-22T23:40:27.522Z,11.37
2023-04-22T23:42:55.382Z,11.38
2023-04-22T23:45:22.839Z,11.40
2023-04-22T23:47:50.447Z,11.41
2023-04-22T23:50:18.789Z,11.42
2023-04-22T23:52:46.396Z,11.43
2023-04-22T23:55:15.457Z,11.43
2023-04-22T23:57:42.818Z,11.44
